Republica Dominicana

Vuelos de Bajo Nivel

VUELOS DE BAJO NIVEL DESDE SUPERFICIE HASTA 24,000 PIES

VALIDO DESDE 131200Z ...……………………………………HASTA 140000Z

SALIDA  Y  PUESTA  DEL  SOL  06:32 AM / 18:18 PM. 

 

SANTO DOMINGO FIR...PORT-AU-PRINCE FIR... HISPANIOLA...SCT020 SCT-BKN060 TOP 160. ISOL SHRA. OTLK...VFR SHRA. WTRS...SCT020 SCT060. ISOL SHRA/TSRA. OTLK...VFR SHRA TSRA.

 

 

5,000 FT.

10,000 FT.

18,000 FT.

24,000 FT.

MDSD

1610KT+18ºC

0910KT+10ºC

0810KT+06ºC

1510KT-17ºC

MTPP

1710KT+18ºC

1010KT+10ºC

0910KT+06ºC

1610KT-17ºC

TJSJ

0610KT+18ºC

0805KT+10ºC

0510KT+06ºC

0410KT-18ºC

 

TAF 

TAF MDPP 131000Z 1312/1412 00000KT 9999 FEW016 BECMG 1314/1316 09012KT=

TAF MDST 131000Z 1312/1412 00000KT 9999 FEW016 BKN300 BECMG 1313/1315 13008KT 

TAF MDPC 131000Z 1312/1412 00000KT 9999 FEW022 BECMG 1314/1316 13005KT=

TAF MDBH 131000Z 1312/1412 27005KT 9999 FEW018 SCT300 BECMG 1315/1317 13014KT=

TAF MDJB 131000Z 1312/1412 00000KT 9999 FEW018 BECMG 1317/1319 18010KT=

TAF MDSD 131000Z 1312/1412 04004KT 9999 FEW018 BECMG 1315/1317 17006KT=

TAF MDLR 131000Z 1312/1412 00000KT 9999 FEW018 BECMG 1314/1316 13008KT=

TAF MDCY 131000Z 1312/1412 00000KT 9999 FEW018 BECMG 1316/1318 08010KT PROB30 1321/1303 8000 TS VCSH FEW016CB SCT018 SCT070= 

KMIA 130834Z 1309/1412 08010KT P6SM VCSH FEW030 SCT040 BKN060 FM131500 09012KT P6SM SCT030 BKN080 FM140200 09008KT P6SM FEW025 SCT070 FM140600 08005KT P6SM FEW025 BKN060 

KJFK 130824Z 1308/1412 35008KT P6SM SKC FM131600 VRB04KT P6SM FEW100 SCT250 FM131800 18007KT P6SM FEW100 SCT250 FM140000 17006KT P6SM SCT050 BKN100 FM140400 VRB04KT P6SM SCT030 BKN050 

TJSJ 130528Z 1306/1406 20003KT P6SM FEW030 FM131400 05011KT P6SM SCT030 FM132300 08004KT P6SM FEW030 

TAF MKJP 130515Z 1306/1406 36006KT 9999 FEW020 FEW022CB BECMG 1314/1316 14020KT TEMPO 1316/1324 5000 TSRA BKN018CB BECMG 1402/1404 35005KT 

MUHA 131100Z 1312/1412 09012KT 9000 FEW030 PROB30 TEMPO 1321/1324 5000 SHRA FEW020CB BKN030 BECMG 1403/1404 09003KT 

TAF MUGM 1307/1407 35010KT 9999 FEW030 FEW280 QNH2985INS BECMG 1316/1318 13008KT 9999 VCSH FEW025 SCT030 QNH2986INS TEMPO 1320/1400 VRB06KT 8000 -SHRA SCT020FM140100 VRB06KT 9999 FEW025 SCT030 QNH2985INS T24/1310Z T31/1318Z FN00218 

TAF TNCC 130515Z 1306/1406 11012KT 9999 SCT018 TEMPO 1306/1312 BKN014 

TAF TFFR 130500Z 1306/1406 VRB03KT 9999 SCT025 BECMG 1311/1313 14010KT TEMPO 1317/1404 2000 SHRA SCT015CB BKN020TCU

 

PREPARADO POR: ELIZABETH FELIZ B. 13 de OCTUBRE del 2019.-




Tamaño letra

Contraste

Otros